EPKKEPMO

Guest
Details From EPKK - BALICE
To EPMO - MODLIN
Flight Number -
Tags generated
Created
Modified
Stats Distance 146 nm / 271 km
Max Altitude 15,000 ft / 4,572 m
Waypoints 3
Social Downloads 0
Likes 0
Share VATSIM

Download

Looking for another format? Having issues loading an existing format? Contact us
Advertisement - Login to hide

Notes

Basic altitude profile: - Ascent Rate: 2500ft/min - Ascent Speed: 250kts - Cruise Altitude: 35000ft - Cruise Speed: 420kts - Descent Rate: 1500ft/min - Descent Speed: 250kts Options: - Use NATs: yes - Use PACOTS: yes - Use low airways: yes - Use high airways: yes

Route

EPKK KUKAM EPMO

ID Type Via Altitude Latitude Longitude Leg Dist Tot Dist Heading (true) Name
O EPKK APT - 0 ft / 0 m 50.07782˚ 19.78550˚ - 0 nm - BALICE
KUKAM FIX - 15,000 ft / 4,572 m 50.80611˚ 20.06056˚ 44 nm 44 nm 13° / 14° -
O EPMO APT - 0 ft / 0 m 52.45111˚ 20.65178˚ 101 nm 146 nm 12° / 13° MODLIN

Altitude Profile

Advertisement - Login to hide

EPKK

Details ICAO EPKK (KRK)
Name BALICE
Region Poland
Timezone Europe/Warsaw (UTC+1.0)
Stats Elevation 791 ft / 241 m (AMSL)
Location 50.077821° 19.785503°
Runways 1
Magnetic Variation 5.203° E

METAR

EPKK 180330Z 07004KT 1500 -SN BR BKN017 M02/M02 Q1022 R25/1///95

Decode

TAF

TAF EPKK 172330Z 1800/1824 VRB02KT 2000 BR BKN040 TEMPO 1800/1808 0500 FZFG BKN002 BECMG 1808/1811 7000 BECMG 1815/1817 2000 BR

Decode

Departure Runways

ID Width Length Bearing (true) Bearing (mag) Surface Threshold Offset Overrun Length
07 197 ft / 60 m 8,343 ft / 2,543 m 77.75° 72.55° Concrete 0 ft / 0 m 0 ft / 0 m
25 197 ft / 60 m 8,343 ft / 2,543 m 257.77° 252.57° Concrete 784 ft / 239 m 0 ft / 0 m

EPMO

Details ICAO EPMO (WMI)
Name MODLIN
Region Poland
Timezone Europe/Warsaw (UTC+1.0)
Stats Elevation 341 ft / 104 m (AMSL)
Location 52.451110° 20.651778°
Runways 1
Magnetic Variation 5.767° E

METAR

EPMO 180330Z VRB02KT 2500 BR NSC M01/M01 Q1023

Decode

TAF

TAF EPMO 172330Z 1800/1824 VRB02KT 1100 BR NSC BECMG 1800/1802 0200 FZFG OVC001 BECMG 1808/1811 4000 BR BKN014 BECMG 1815/1817 1200 BR

Decode

Destination Runways

ID Width Length Bearing (true) Bearing (mag) Surface Threshold Offset Overrun Length
08 197 ft / 60 m 8,188 ft / 2,496 m 81.96° 76.19° Asphalt 0 ft / 0 m 0 ft / 0 m
26 197 ft / 60 m 8,188 ft / 2,496 m 261.99° 256.22° Asphalt 0 ft / 0 m 0 ft / 0 m

Popular Alternatives